Time;durP1;ratioP1;P1;durP2;ratioP2;P2;SDS_P1;SDS_P2;PMS_P1;PMS_P2;Temp;Humidity;BMP_temperature;BMP_pressure;BME280_temperature;BME280_humidity;BME280_pressure;Samples;Min_cycle;Max_cycle;Signal;HPM_P1;HPM_P2
2024/01/17 00:01:43;;;;;;;11.07;6.10;;;-0.20;99.90;;;-141.84;69.27;18277.69;5060985;28;20233;-73
2024/01/17 00:04:14;;;;;;;7.53;5.67;;;-0.40;99.90;;;-141.84;70.01;18316.28;5061288;28;20637;-74
2024/01/17 00:06:42;;;;;;;9.13;6.40;;;-0.40;99.90;;;-141.84;70.93;18324.41;5061016;28;20706;-74
2024/01/17 00:09:11;;;;;;;10.07;6.43;;;-0.50;99.90;;;-141.84;70.11;18324.41;5069546;28;20205;-74
2024/01/17 00:11:40;;;;;;;10.07;6.23;;;-0.40;99.90;;;-141.84;69.67;18289.88;5061810;28;20555;-73
2024/01/17 00:14:08;;;;;;;9.40;6.13;;;-0.50;99.90;;;-141.84;69.56;18310.19;5060907;28;20307;-73
2024/01/17 00:16:38;;;;;;;8.70;6.43;;;-0.50;99.90;;;-141.84;69.94;18328.47;5053158;28;20271;-74
2024/01/17 00:19:06;;;;;;;9.63;6.57;;;-0.50;99.90;;;-141.84;70.89;18330.50;5061057;28;20250;-74
2024/01/17 00:21:35;;;;;;;8.60;6.53;;;-0.60;99.90;;;-141.84;72.28;18322.38;5060752;28;20724;-74
2024/01/17 00:24:03;;;;;;;8.67;5.90;;;-0.70;99.90;;;-141.84;72.33;18338.63;5050635;28;20243;-73
2024/01/17 00:26:32;;;;;;;9.70;6.10;;;-0.70;99.90;;;-141.84;72.64;18379.25;5057958;28;20262;-73
2024/01/17 00:29:00;;;;;;;10.57;6.73;;;-0.80;99.90;;;-141.84;71.02;18340.66;5067837;28;20230;-72
2024/01/17 00:31:28;;;;;;;8.30;6.07;;;-0.70;99.90;;;-141.84;71.57;18318.31;5062173;28;20389;-73
2024/01/17 00:33:58;;;;;;;9.73;6.27;;;-0.70;99.90;;;-141.84;72.85;18375.19;5069309;28;20220;-75
2024/01/17 00:36:26;;;;;;;9.63;6.73;;;-0.80;99.90;;;-141.84;73.08;18387.38;5070263;28;20672;-75
2024/01/17 00:38:55;;;;;;;10.07;6.70;;;-0.90;99.90;;;-141.84;73.75;18407.69;5069910;28;20230;-73
2024/01/17 00:41:23;;;;;;;9.83;6.40;;;-1.00;99.90;;;-141.84;73.66;18417.84;5069460;28;20622;-73
2024/01/17 00:43:51;;;;;;;9.17;6.40;;;-0.90;99.90;;;-141.84;73.51;18393.47;5069581;28;20307;-73
2024/01/17 00:46:20;;;;;;;11.47;6.27;;;-1.00;99.90;;;-141.84;72.83;18365.03;5069599;28;20233;-73
2024/01/17 00:48:48;;;;;;;10.13;6.63;;;-1.00;99.90;;;-141.84;73.27;18356.91;5070565;28;20642;-73
2024/01/17 00:51:24;;;;;;;12.43;7.17;;;-0.90;99.90;;;-141.84;72.81;18352.84;5070550;28;20247;-73
2024/01/17 00:53:53;;;;;;;11.97;7.00;;;-0.90;99.90;;;-141.84;72.04;18322.38;5071507;28;20214;-73
2024/01/17 00:56:22;;;;;;;10.47;6.90;;;-0.90;99.90;;;-141.84;73.09;18391.44;5070735;28;20227;-74
2024/01/17 00:58:50;;;;;;;11.43;7.03;;;-0.90;99.90;;;-141.84;72.44;18363.00;5070222;28;20216;-74
2024/01/17 01:01:18;;;;;;;10.57;6.83;;;-0.90;99.90;;;-141.84;72.55;18371.13;5070666;28;20295;-74
2024/01/17 01:03:47;;;;;;;11.53;7.17;;;-0.90;99.90;;;-141.84;71.27;18314.25;5070404;28;20259;-73
2024/01/17 01:06:15;;;;;;;13.43;7.63;;;-0.80;99.90;;;-141.84;73.01;18348.78;5071294;28;20257;-73
2024/01/17 01:08:44;;;;;;;9.70;7.37;;;-0.90;99.90;;;-141.84;72.68;18391.44;5071219;28;20283;-74
2024/01/17 01:11:13;;;;;;;12.80;7.03;;;-0.90;99.90;;;-141.84;72.32;18350.81;5070537;28;20228;-73
2024/01/17 01:13:41;;;;;;;11.67;7.37;;;-0.90;99.90;;;-141.84;72.41;18358.94;5070457;28;20717;-74
2024/01/17 01:16:11;;;;;;;12.70;7.53;;;-0.90;99.90;;;-141.84;71.94;18336.59;5070489;28;20254;-73
2024/01/17 01:18:39;;;;;;;10.73;7.40;;;-0.90;99.90;;;-141.84;71.43;18328.47;5062315;28;20327;-74
2024/01/17 01:21:07;;;;;;;11.17;6.60;;;-0.90;99.90;;;-141.84;70.48;18308.16;5071531;28;20294;-58
2024/01/17 01:23:36;;;;;;;10.27;7.03;;;-0.90;99.90;;;-141.84;70.08;18293.94;5051089;28;20225;-59
2024/01/17 01:26:05;;;;;;;11.50;6.87;;;-0.90;99.90;;;-141.84;71.18;18334.56;5057549;28;20220;-58
2024/01/17 01:28:34;;;;;;;10.30;6.93;;;-1.00;99.90;;;-141.84;70.83;18289.88;5055251;28;20242;-58
2024/01/17 01:31:02;;;;;;;10.13;7.50;;;-0.90;99.90;;;-141.84;71.27;18324.41;5048781;28;20312;-59
2024/01/17 01:33:30;;;;;;;9.43;7.10;;;-1.00;99.90;;;-141.84;70.98;18324.41;5042439;28;20259;-59
2024/01/17 01:35:59;;;;;;;11.73;7.60;;;-1.00;99.90;;;-141.84;70.11;18334.56;5051579;28;20285;-60
2024/01/17 01:38:27;;;;;;;13.00;7.70;;;-1.00;99.90;;;-141.84;70.51;18324.41;5062480;28;20305;-59
2024/01/17 01:40:58;;;;;;;8.90;7.00;;;-1.00;99.90;;;-141.84;71.42;18320.34;5050127;28;20223;-59
2024/01/17 01:43:28;;;;;;;14.97;7.17;;;-1.10;99.90;;;-141.84;72.06;18360.97;5052685;28;20711;-59
2024/01/17 01:46:13;;;;;;;13.80;7.10;;;-1.10;99.90;;;-141.84;71.59;18336.59;5058634;28;20221;-59
2024/01/17 01:48:43;;;;;;;11.33;7.10;;;-1.10;99.90;;;-141.84;72.76;18346.75;5054149;28;20270;-59
2024/01/17 01:51:13;;;;;;;9.43;6.90;;;-1.20;99.90;;;-141.84;73.31;18346.75;5061282;28;20232;-59
2024/01/17 01:53:45;;;;;;;8.83;6.87;;;-1.20;99.90;;;-141.84;72.25;18356.91;5062758;28;20205;-60
2024/01/17 01:56:16;;;;;;;9.03;7.20;;;-1.20;99.90;;;-141.84;72.50;18371.13;5052070;28;20301;-59
2024/01/17 01:58:49;;;;;;;10.33;6.70;;;-1.20;99.90;;;-141.84;73.52;18375.19;5038683;28;20268;-59
2024/01/17 02:01:20;;;;;;;10.93;6.97;;;-1.30;99.90;;;-141.84;71.46;18332.53;5046661;28;20717;-59
2024/01/17 02:03:49;;;;;;;9.03;6.53;;;-1.20;99.90;;;-141.84;71.97;18318.31;5047974;28;20233;-59
2024/01/17 02:06:21;;;;;;;11.97;7.07;;;-1.30;99.90;;;-141.84;72.23;18338.63;5057251;28;20324;-58
2024/01/17 02:08:51;;;;;;;10.87;6.50;;;-1.20;99.90;;;-141.84;72.25;18358.94;5088714;28;20200;-58
2024/01/17 02:11:20;;;;;;;12.13;7.13;;;-1.30;99.90;;;-141.84;73.45;18375.19;5093998;28;20223;-61
2024/01/17 02:13:50;;;;;;;10.93;6.70;;;-1.20;99.90;;;-141.84;74.80;18405.66;5094247;28;20288;-59
2024/01/17 02:16:19;;;;;;;9.30;6.37;;;-1.50;99.90;;;-141.84;75.54;18448.34;5093773;28;20219;-60
2024/01/17 02:18:49;;;;;;;11.83;6.70;;;-1.60;99.90;;;-141.84;74.40;18401.59;5094501;28;20310;-62
2024/01/17 02:21:17;;;;;;;9.20;6.37;;;-1.50;99.90;;;-141.84;73.78;18358.94;5094990;28;20219;-59
2024/01/17 02:23:50;;;;;;;10.80;6.57;;;-1.50;99.90;;;-141.84;74.75;18385.34;5095397;28;20227;-60
2024/01/17 02:26:20;;;;;;;10.50;6.67;;;-1.60;99.90;;;-141.84;74.38;18338.63;5093626;28;20705;-60
2024/01/17 02:28:48;;;;;;;8.23;6.53;;;-1.60;99.90;;;-141.84;74.52;18387.38;5093394;28;20673;-60
2024/01/17 02:31:17;;;;;;;9.37;6.40;;;-1.60;99.90;;;-141.84;75.05;18371.13;5094143;28;20219;-60
2024/01/17 02:33:45;;;;;;;10.50;7.13;;;-1.60;99.90;;;-141.84;74.59;18395.50;5094201;28;20907;-62
2024/01/17 02:36:14;;;;;;;8.93;6.20;;;-1.60;99.90;;;-141.84;74.68;18387.38;5094169;28;20220;-61
2024/01/17 02:38:42;;;;;;;11.37;6.90;;;-1.60;99.90;;;-141.84;75.07;18425.97;5094594;28;20203;-59
2024/01/17 02:41:12;;;;;;;12.03;6.80;;;-1.60;99.90;;;-141.84;74.40;18387.38;5094819;28;20216;-58
2024/01/17 02:43:41;;;;;;;9.00;6.70;;;-1.60;99.90;;;-141.84;74.49;18375.19;5094372;28;20255;-59
2024/01/17 02:46:09;;;;;;;8.73;6.87;;;-1.60;99.90;;;-141.84;75.00;18393.47;5093574;28;20216;-60
2024/01/17 02:48:38;;;;;;;9.90;6.77;;;-1.70;99.90;;;-141.84;75.10;18407.69;5093125;28;20681;-59
2024/01/17 02:51:06;;;;;;;7.77;5.50;;;-1.70;99.90;;;-141.84;74.64;18419.88;5094588;28;20253;-73
2024/01/17 02:53:34;;;;;;;12.50;7.03;;;-1.70;99.90;;;-141.84;73.36;18385.34;5093443;28;20224;-74
2024/01/17 02:56:03;;;;;;;9.50;6.73;;;-1.60;99.90;;;-141.84;72.32;18360.97;5093598;28;20239;-74
2024/01/17 02:58:33;;;;;;;11.03;6.60;;;-1.60;99.90;;;-141.84;72.42;18336.59;5076479;28;20257;-73
2024/01/17 03:01:01;;;;;;;9.80;6.70;;;-1.60;99.90;;;-141.84;72.13;18287.84;5094034;28;20246;-73
2024/01/17 03:03:30;;;;;;;9.13;5.97;;;-1.60;99.90;;;-141.84;71.65;18306.13;5093705;28;20223;-73
2024/01/17 03:05:58;;;;;;;8.77;6.00;;;-1.60;99.90;;;-141.84;70.88;18300.03;5093352;28;20255;-74
2024/01/17 03:08:26;;;;;;;7.60;5.90;;;-1.60;99.90;;;-141.84;70.37;18298.00;5092894;28;20681;-74
2024/01/17 03:10:55;;;;;;;9.00;6.27;;;-1.50;99.90;;;-141.84;70.15;18316.28;5093566;28;20258;-74
2024/01/17 03:13:23;;;;;;;8.33;6.30;;;-1.50;99.90;;;-141.84;70.15;18322.38;5093670;28;20255;-73
2024/01/17 03:15:56;;;;;;;9.10;6.10;;;-1.50;99.90;;;-141.84;70.65;18267.53;5093246;28;20216;-73
2024/01/17 03:18:24;;;;;;;8.03;5.97;;;-1.60;99.90;;;-141.84;69.52;18295.97;5092939;28;20243;-73
2024/01/17 03:20:53;;;;;;;9.50;5.93;;;-1.60;99.90;;;-141.84;69.72;18326.44;5093541;28;20189;-74
2024/01/17 03:23:21;;;;;;;7.17;5.53;;;-1.60;99.90;;;-141.84;68.93;18271.59;5093223;28;20727;-73
2024/01/17 03:25:49;;;;;;;8.00;5.47;;;-1.60;99.90;;;-141.84;70.07;18277.69;5092205;28;20224;-74
2024/01/17 03:28:18;;;;;;;6.27;5.43;;;-1.60;99.90;;;-141.84;70.55;18326.44;5092560;28;20231;-74
2024/01/17 03:30:46;;;;;;;9.93;5.90;;;-1.70;99.90;;;-141.84;70.71;18310.19;5093208;28;20220;-74
2024/01/17 03:33:15;;;;;;;7.93;5.93;;;-1.70;99.90;;;-141.84;70.39;18310.19;5083962;28;20805;-71
2024/01/17 03:35:44;;;;;;;8.63;5.73;;;-1.70;99.90;;;-141.84;69.20;18285.81;5093498;28;20579;-73
2024/01/17 03:38:12;;;;;;;9.30;5.63;;;-1.60;99.90;;;-141.84;68.78;18277.69;5092411;28;20242;-74
2024/01/17 03:40:40;;;;;;;13.83;6.10;;;-1.60;99.90;;;-141.84;68.78;18261.44;5091736;28;20297;-75
2024/01/17 03:43:09;;;;;;;9.80;5.87;;;-1.60;99.90;;;-141.84;68.48;18324.41;5092585;28;20640;-74
2024/01/17 03:45:37;;;;;;;9.30;6.00;;;-1.50;99.90;;;-141.84;69.48;18281.75;5091796;28;20645;-73
2024/01/17 03:48:06;;;;;;;8.23;5.80;;;-1.60;99.90;;;-141.84;69.00;18289.88;5092275;28;20661;-74
2024/01/17 03:50:36;;;;;;;8.87;6.13;;;-1.60;99.90;;;-141.84;69.76;18322.38;5092511;28;20224;-75
2024/01/17 03:53:04;;;;;;;10.03;5.90;;;-1.60;99.90;;;-141.84;70.94;18330.50;5091562;28;20277;-74
2024/01/17 03:55:33;;;;;;;9.30;5.73;;;-1.70;99.90;;;-141.84;71.34;18318.31;5092018;28;20300;-73
2024/01/17 03:58:01;;;;;;;8.70;6.17;;;-1.80;99.90;;;-141.84;71.18;18308.16;5088838;28;20261;-75
2024/01/17 04:00:30;;;;;;;9.90;6.53;;;-1.80;99.90;;;-141.84;72.11;18334.56;5092250;28;20226;-74
2024/01/17 04:02:58;;;;;;;8.40;5.63;;;-1.90;99.90;;;-141.84;72.48;18322.38;5092668;28;20280;-75
2024/01/17 04:05:26;;;;;;;7.87;5.63;;;-1.90;99.90;;;-141.84;72.60;18346.75;5091429;28;20239;-75
2024/01/17 04:07:56;;;;;;;8.37;6.03;;;-1.90;99.90;;;-141.84;72.46;18346.75;5091988;28;20614;-75
2024/01/17 04:10:24;;;;;;;9.60;6.03;;;-2.00;99.90;;;-141.84;71.38;18328.47;5093552;28;20224;-73
2024/01/17 04:12:52;;;;;;;9.23;6.53;;;-1.90;99.90;;;-141.84;71.20;18316.28;5092039;28;20223;-75
2024/01/17 04:15:20;;;;;;;10.27;6.00;;;-1.80;99.90;;;-141.84;70.88;18318.31;5091955;28;20231;-73
2024/01/17 04:17:49;;;;;;;10.77;6.50;;;-1.80;99.90;;;-141.84;70.12;18308.16;5092597;28;20231;-74
2024/01/17 04:20:17;;;;;;;9.40;6.63;;;-1.70;99.90;;;-141.84;70.01;18298.00;5092006;28;20212;-75
2024/01/17 04:22:45;;;;;;;8.77;6.23;;;-1.70;99.90;;;-141.84;70.29;18338.63;5091821;28;20215;-74
2024/01/17 04:25:15;;;;;;;9.77;5.90;;;-1.70;99.90;;;-141.84;70.46;18338.63;5092163;28;20227;-73
2024/01/17 04:27:43;;;;;;;11.63;6.47;;;-1.70;99.90;;;-141.84;71.42;18336.59;5091461;28;20306;-74
2024/01/17 04:30:14;;;;;;;9.77;6.47;;;-1.80;99.90;;;-141.84;71.14;18308.16;5092350;28;20265;-74
2024/01/17 04:32:42;;;;;;;8.23;6.53;;;-1.80;99.90;;;-141.84;70.60;18324.41;5091624;28;20211;-74
2024/01/17 04:35:11;;;;;;;11.37;6.60;;;-1.80;99.90;;;-141.84;70.57;18324.41;5091864;28;20636;-75
2024/01/17 04:37:40;;;;;;;10.33;6.60;;;-1.80;99.90;;;-141.84;71.52;18302.06;5055772;28;20356;-74
2024/01/17 04:40:10;;;;;;;7.30;6.13;;;-1.80;99.90;;;-141.84;72.33;18338.63;5089978;28;20250;-74
2024/01/17 04:42:40;;;;;;;10.80;7.00;;;-1.90;99.90;;;-141.84;71.78;18322.38;5083446;28;20277;-74
2024/01/17 04:45:10;;;;;;;10.77;7.10;;;-1.90;99.90;;;-141.84;71.69;18306.13;5092960;28;20283;-74
2024/01/17 04:47:39;;;;;;;12.83;7.47;;;-1.90;99.90;;;-141.84;70.62;18336.59;5092093;28;20207;-74
2024/01/17 04:50:08;;;;;;;10.13;7.43;;;-1.80;99.90;;;-141.84;71.01;18302.06;5091036;28;20223;-74
2024/01/17 04:52:36;;;;;;;9.90;6.90;;;-1.70;99.90;;;-141.84;71.30;18314.25;5091755;28;20235;-74
2024/01/17 04:55:07;;;;;;;10.33;7.10;;;-1.80;99.90;;;-141.84;70.03;18295.97;5090982;28;20741;-74
2024/01/17 04:57:36;;;;;;;10.60;7.20;;;-1.80;99.90;;;-141.84;70.37;18312.22;5084392;28;20223;-74
2024/01/17 05:00:08;;;;;;;10.57;7.50;;;-1.80;99.90;;;-141.84;71.13;18310.19;5091806;28;20269;-75
2024/01/17 05:02:37;;;;;;;11.53;7.60;;;-1.80;99.90;;;-141.84;70.08;18289.88;5082670;28;20204;-74
2024/01/17 05:05:06;;;;;;;9.93;7.00;;;-1.80;99.90;;;-141.84;69.65;18293.94;5094105;28;20521;-73
2024/01/17 05:07:35;;;;;;;10.97;7.83;;;-1.80;99.90;;;-141.84;70.63;18320.34;5095809;28;20220;-74
2024/01/17 05:10:04;;;;;;;10.67;7.27;;;-1.70;99.90;;;-141.84;71.59;18322.38;5102084;28;20223;-73
2024/01/17 05:12:34;;;;;;;10.87;7.40;;;-1.80;99.90;;;-141.84;71.67;18338.63;5091539;28;20228;-74
2024/01/17 05:15:03;;;;;;;11.43;8.63;;;-1.80;99.90;;;-141.84;72.12;18342.69;5092094;28;20268;-76
2024/01/17 05:17:33;;;;;;;12.67;8.60;;;-1.90;99.90;;;-141.84;72.11;18322.38;5091476;28;20238;-74
2024/01/17 05:20:02;;;;;;;11.27;7.57;;;-1.90;99.90;;;-141.84;71.79;18322.38;5090885;28;20243;-75
2024/01/17 05:22:30;;;;;;;12.90;8.17;;;-1.90;99.90;;;-141.84;71.92;18350.81;5090645;28;20806;-73
2024/01/17 05:24:58;;;;;;;11.33;8.20;;;-1.90;99.90;;;-141.84;72.55;18310.19;5091051;28;20295;-73
2024/01/17 05:27:26;;;;;;;11.93;8.60;;;-2.00;99.90;;;-141.84;72.62;18330.50;5091507;28;20231;-73
2024/01/17 05:29:55;;;;;;;13.13;8.73;;;-2.00;99.90;;;-141.84;71.86;18358.94;5092036;28;20656;-74
2024/01/17 05:32:23;;;;;;;15.40;8.40;;;-1.90;99.90;;;-141.84;72.31;18336.59;5090776;28;20227;-74
2024/01/17 05:34:54;;;;;;;11.23;8.40;;;-2.00;99.90;;;-141.84;71.20;18363.00;5090685;28;20230;-73
2024/01/17 05:37:23;;;;;;;11.47;8.13;;;-2.00;99.90;;;-141.84;70.20;18324.41;5083107;28;20681;-74
2024/01/17 05:39:52;;;;;;;12.53;8.10;;;-1.90;99.90;;;-141.84;69.83;18298.00;5090906;28;20227;-73
2024/01/17 05:42:20;;;;;;;12.90;8.33;;;-1.80;99.90;;;-141.84;71.89;18332.53;5091013;28;20286;-73
2024/01/17 05:44:48;;;;;;;11.37;8.87;;;-2.10;99.90;;;-141.84;72.84;18346.75;5093026;28;20279;-73
2024/01/17 05:47:17;;;;;;;11.10;8.33;;;-1.90;99.90;;;-141.84;73.02;18348.78;5094015;28;20219;-74
2024/01/17 05:49:46;;;;;;;14.43;8.33;;;-2.00;99.90;;;-141.84;71.18;18334.56;5094450;28;20230;-74
2024/01/17 05:52:18;;;;;;;9.80;7.60;;;-1.90;99.90;;;-141.84;69.83;18310.19;5094966;28;20229;-74
2024/01/17 05:54:46;;;;;;;11.13;8.47;;;-1.80;99.90;;;-141.84;70.01;18289.88;5094315;28;20227;-75
2024/01/17 05:57:14;;;;;;;13.57;9.00;;;-1.80;99.90;;;-141.84;69.04;18295.97;5094367;28;20235;-74
2024/01/17 05:59:43;;;;;;;11.97;9.13;;;-1.80;99.90;;;-141.84;68.75;18273.63;5095698;28;20539;-74
2024/01/17 06:02:12;;;;;;;10.97;8.27;;;-1.70;99.90;;;-141.84;68.99;18298.00;5094962;28;20231;-73
2024/01/17 06:04:40;;;;;;;13.10;8.27;;;-1.70;99.90;;;-141.84;69.39;18322.38;5083761;28;20319;-73
2024/01/17 06:07:08;;;;;;;13.77;8.83;;;-1.80;99.90;;;-141.84;70.15;18285.81;5089062;28;20224;-75
2024/01/17 06:09:38;;;;;;;15.47;9.50;;;-1.80;99.90;;;-141.84;70.62;18310.19;5093729;28;20227;-72
2024/01/17 06:12:06;;;;;;;11.73;9.90;;;-1.80;99.90;;;-141.84;69.80;18275.66;5096326;28;20196;-74
2024/01/17 06:14:35;;;;;;;11.93;8.50;;;-1.80;99.90;;;-141.84;69.31;18308.16;5095611;28;20222;-75
2024/01/17 06:17:03;;;;;;;11.87;8.57;;;-1.70;99.90;;;-141.84;69.46;18308.16;5093818;28;20238;-73
2024/01/17 06:19:32;;;;;;;15.70;9.87;;;-1.70;99.90;;;-141.84;70.12;18306.13;5094730;28;20761;-74
2024/01/17 06:22:02;;;;;;;11.57;8.57;;;-1.80;99.90;;;-141.84;69.83;18300.03;5095735;28;20249;-73
2024/01/17 06:24:30;;;;;;;15.10;9.23;;;-1.80;99.90;;;-141.84;69.33;18310.19;5093158;28;20269;-74
2024/01/17 06:27:00;;;;;;;11.80;8.00;;;-1.80;99.90;;;-141.84;68.96;18318.31;5090640;28;20286;-73
2024/01/17 06:29:34;;;;;;;14.47;8.87;;;-1.70;99.90;;;-141.84;68.78;18300.03;5095542;28;20376;-73
2024/01/17 06:32:03;;;;;;;12.87;8.57;;;-1.70;99.90;;;-141.84;69.62;18293.94;5089994;28;20231;-73
2024/01/17 06:34:36;;;;;;;14.70;9.00;;;-1.80;99.90;;;-141.84;70.13;18304.09;5095511;28;20239;-74
2024/01/17 06:37:06;;;;;;;13.13;8.33;;;-1.80;99.90;;;-141.84;69.14;18289.88;5096051;28;20222;-75
2024/01/17 06:39:34;;;;;;;12.03;7.97;;;-1.70;99.90;;;-141.84;69.33;18302.06;5093045;28;20231;-75
2024/01/17 06:42:05;;;;;;;12.67;8.63;;;-1.70;99.90;;;-141.84;69.48;18334.56;5082403;28;20195;-74
2024/01/17 06:44:34;;;;;;;12.90;9.33;;;-1.70;99.90;;;-141.84;69.58;18269.56;5085495;28;20283;-73
2024/01/17 06:47:03;;;;;;;12.50;9.57;;;-1.70;99.90;;;-141.84;69.09;18275.66;5084022;28;20814;-74
2024/01/17 06:49:31;;;;;;;13.33;8.87;;;-1.70;99.90;;;-141.84;70.20;18306.13;5079539;28;20247;-74
2024/01/17 06:52:00;;;;;;;12.67;8.47;;;-1.70;99.90;;;-141.84;70.99;18310.19;5037390;28;20216;-74
2024/01/17 06:54:28;;;;;;;12.93;9.37;;;-1.80;99.90;;;-141.84;71.02;18304.09;5094489;28;20225;-74
2024/01/17 06:56:56;;;;;;;15.53;8.80;;;-1.80;99.90;;;-141.84;71.39;18346.75;5087466;28;20200;-73
2024/01/17 06:59:26;;;;;;;14.90;8.97;;;-1.90;99.90;;;-141.84;69.68;18259.41;5081606;28;20714;-74
2024/01/17 07:01:55;;;;;;;13.07;8.63;;;-1.80;99.90;;;-141.84;68.66;18310.19;5074691;28;20225;-73
2024/01/17 07:04:23;;;;;;;12.70;8.13;;;-1.70;99.90;;;-141.84;69.11;18302.06;5072474;28;20246;-73
2024/01/17 07:06:51;;;;;;;12.23;8.03;;;-1.70;99.90;;;-141.84;69.25;18287.84;5075037;28;20240;-73
2024/01/17 07:09:20;;;;;;;14.13;8.53;;;-1.70;99.90;;;-141.84;68.30;18293.94;5064572;28;20280;-73
2024/01/17 07:11:48;;;;;;;10.77;8.00;;;-1.70;99.90;;;-141.84;67.93;18316.28;5059858;28;20657;-73
2024/01/17 07:14:16;;;;;;;12.20;8.47;;;-1.70;99.90;;;-141.84;68.22;18302.06;5088893;28;20224;-70
2024/01/17 07:16:46;;;;;;;10.20;8.23;;;-1.70;99.90;;;-141.84;68.81;18322.38;5088116;28;20230;-68
2024/01/17 07:19:14;;;;;;;13.30;9.07;;;-1.70;99.90;;;-141.84;69.27;18289.88;5088269;28;20654;-76
2024/01/17 07:21:43;;;;;;;14.53;8.33;;;-1.70;99.90;;;-141.84;69.79;18302.06;5091848;28;20565;-71
2024/01/17 07:24:13;;;;;;;10.67;7.93;;;-1.70;99.90;;;-141.84;69.67;18318.31;5087290;28;20203;-68
2024/01/17 07:26:41;;;;;;;10.40;8.30;;;-1.70;99.90;;;-141.84;68.68;18316.28;5091865;28;20299;-67
2024/01/17 07:29:10;;;;;;;12.80;8.00;;;-1.60;99.90;;;-141.84;68.92;18312.22;5082409;28;20227;-67
2024/01/17 07:31:39;;;;;;;11.83;7.80;;;-1.50;99.90;;;-141.84;69.71;18334.56;5089159;28;20228;-67
2024/01/17 07:34:09;;;;;;;12.60;8.60;;;-1.60;99.90;;;-141.84;68.82;18326.44;5089936;28;20224;-67
2024/01/17 07:36:38;;;;;;;11.67;8.23;;;-1.50;99.90;;;-141.84;68.76;18318.31;5092009;28;20223;-67
2024/01/17 07:39:06;;;;;;;9.53;6.90;;;-1.50;99.90;;;-141.84;68.68;18340.66;5088842;28;20290;-67
2024/01/17 07:41:35;;;;;;;12.30;8.13;;;-1.50;99.90;;;-141.84;68.15;18287.84;5084948;28;20223;-69
2024/01/17 07:44:04;;;;;;;9.30;7.20;;;-1.50;99.90;;;-141.84;67.89;18300.03;5084444;28;20243;-66
2024/01/17 07:46:32;;;;;;;10.23;7.50;;;-1.50;99.90;;;-141.84;66.75;18334.56;5085561;28;20682;-65
2024/01/17 07:49:00;;;;;;;11.80;8.00;;;-1.40;99.90;;;-141.84;66.75;18285.81;5083805;28;20696;-70
2024/01/17 07:51:31;;;;;;;9.13;7.20;;;-1.40;99.90;;;-141.84;66.80;18269.56;5091528;28;20200;-70
2024/01/17 07:53:59;;;;;;;10.27;7.17;;;-1.40;99.90;;;-141.84;66.30;18302.06;5091908;28;20218;-70
2024/01/17 07:56:28;;;;;;;10.43;7.80;;;-1.40;99.90;;;-141.84;66.67;18300.03;5091059;28;20720;-70
2024/01/17 07:58:56;;;;;;;10.70;7.17;;;-1.30;99.90;;;-141.84;66.17;18267.53;5091664;28;20220;-70
2024/01/17 08:01:25;;;;;;;11.03;7.30;;;-1.30;99.90;;;-141.84;65.08;18293.94;5083135;28;20262;-70
2024/01/17 08:03:53;;;;;;;10.53;7.30;;;-1.20;99.90;;;-141.84;64.13;18304.09;5091478;28;20767;-70
2024/01/17 08:06:21;;;;;;;11.77;7.70;;;-1.10;99.90;;;-141.84;64.41;18293.94;5090816;28;20215;-70
2024/01/17 08:08:52;;;;;;;9.13;7.47;;;-1.10;99.90;;;-141.84;64.35;18285.81;5091650;28;20219;-70
2024/01/17 08:11:21;;;;;;;10.70;7.33;;;-1.00;99.90;;;-141.84;64.85;18275.66;5092331;28;20223;-70
2024/01/17 08:13:50;;;;;;;9.80;6.87;;;-1.00;99.90;;;-141.84;64.43;18261.44;5091803;28;20257;-70
2024/01/17 08:16:19;;;;;;;11.03;6.77;;;-0.90;99.90;;;-141.84;64.40;18293.94;5090815;28;20732;-70
2024/01/17 08:18:48;;;;;;;9.97;6.80;;;-0.80;99.90;;;-141.84;63.11;18308.16;5091648;28;20276;-69
2024/01/17 08:21:16;;;;;;;14.07;7.50;;;-0.70;99.90;;;-141.84;63.30;18338.63;5090903;28;20202;-71
2024/01/17 08:23:45;;;;;;;10.17;7.23;;;-0.70;99.90;;;-141.84;62.01;18314.25;5093001;28;20258;-76
2024/01/17 08:26:14;;;;;;;12.13;7.77;;;-0.60;99.90;;;-141.84;62.16;18318.31;5091445;28;20248;-73
2024/01/17 08:28:43;;;;;;;9.20;7.10;;;-0.50;99.90;;;-141.84;61.71;18293.94;5087341;28;20773;-74
2024/01/17 08:31:14;;;;;;;10.43;7.53;;;-0.50;99.90;;;-141.84;62.30;18277.69;5091351;28;20294;-73
2024/01/17 08:33:42;;;;;;;11.67;7.90;;;-0.40;99.90;;;-141.84;62.67;18300.03;5091124;28;20235;-73
2024/01/17 08:36:12;;;;;;;10.50;7.63;;;-0.50;99.90;;;-141.84;62.15;18314.25;5091246;28;20220;-71
2024/01/17 08:38:40;;;;;;;10.77;8.07;;;-0.50;99.90;;;-141.84;61.37;18304.09;5091664;28;20200;-73
2024/01/17 08:41:08;;;;;;;10.23;6.90;;;-0.50;99.90;;;-141.84;61.83;18320.34;5084418;28;20218;-68
2024/01/17 08:43:38;;;;;;;11.37;7.27;;;-0.50;99.90;;;-141.84;61.20;18302.06;5090801;28;20219;-68
2024/01/17 08:46:07;;;;;;;10.50;7.73;;;-0.40;99.90;;;-141.84;61.38;18289.88;5090726;28;20218;-65
2024/01/17 08:48:35;;;;;;;14.17;8.70;;;-0.30;99.90;;;-141.84;61.50;18342.69;5090673;28;20219;-68
2024/01/17 08:51:05;;;;;;;10.93;7.50;;;-0.30;99.90;;;-141.84;61.06;18312.22;5091060;28;20654;-68
2024/01/17 08:53:34;;;;;;;10.33;7.03;;;-0.20;99.90;;;-141.84;60.63;18346.75;5090658;28;20266;-69
2024/01/17 08:56:05;;;;;;;12.10;7.07;;;-0.20;99.90;;;-141.84;59.54;18338.63;5084640;28;20240;-69
2024/01/17 08:58:33;;;;;;;10.50;7.37;;;-0.10;99.90;;;-141.84;58.91;18334.56;5090804;28;20248;-71
2024/01/17 09:01:03;;;;;;;12.33;7.53;;;0.00;99.90;;;-141.84;59.57;18322.38;5090592;28;20280;-69
2024/01/17 09:03:33;;;;;;;10.43;6.90;;;0.10;99.90;;;-141.84;59.53;18312.22;5080708;28;20661;-73
2024/01/17 09:06:01;;;;;;;8.87;7.30;;;0.10;99.90;;;-141.84;58.27;18328.47;5091145;28;20220;-74
2024/01/17 09:08:30;;;;;;;10.77;6.57;;;0.30;99.90;;;-141.84;58.18;18328.47;5092052;28;20223;-74
2024/01/17 09:10:59;;;;;;;10.40;6.63;;;0.30;99.90;;;-141.84;57.52;18302.06;5091196;28;20697;-74
2024/01/17 09:13:27;;;;;;;11.97;7.70;;;0.40;99.90;;;-141.84;57.33;18322.38;5094201;28;20225;-73
2024/01/17 09:15:55;;;;;;;8.13;6.73;;;0.40;99.90;;;-141.84;57.48;18326.44;5090502;28;20307;-73
2024/01/17 09:18:25;;;;;;;8.23;6.60;;;0.50;99.90;;;-141.84;57.25;18338.63;5091100;28;20252;-73
2024/01/17 09:20:53;;;;;;;12.53;7.53;;;0.60;99.90;;;-141.84;57.10;18324.41;5094290;28;20276;-72
2024/01/17 09:23:22;;;;;;;8.83;6.93;;;0.60;99.90;;;-141.84;56.22;18375.19;5093980;28;20207;-71
2024/01/17 09:25:51;;;;;;;10.10;6.57;;;0.70;99.90;;;-141.84;56.06;18348.78;5095936;28;20212;-71
2024/01/17 09:28:20;;;;;;;11.40;7.10;;;0.70;99.90;;;-141.84;55.53;18340.66;5052531;28;20880;-71
2024/01/17 09:30:49;;;;;;;8.10;6.53;;;0.80;99.90;;;-141.84;55.71;18358.94;5087016;28;20247;-71
2024/01/17 09:33:18;;;;;;;9.70;6.37;;;0.90;99.90;;;-141.84;55.66;18383.31;5099146;28;20230;-74
2024/01/17 09:35:48;;;;;;;8.60;6.73;;;1.00;99.90;;;-141.84;55.12;18375.19;5101655;28;20227;-74
2024/01/17 09:38:28;;;;;;;9.10;6.33;;;1.10;99.90;;;-141.84;54.12;18381.28;5097234;28;20231;-72
2024/01/17 09:40:57;;;;;;;9.00;7.07;;;1.30;99.90;;;-141.84;53.70;18358.94;5095670;28;20219;-69
2024/01/17 09:43:26;;;;;;;11.27;6.70;;;1.30;99.90;;;-141.84;53.42;18391.44;5086662;28;20262;-69
2024/01/17 09:46:02;;;;;;;10.87;7.30;;;1.40;99.90;;;-141.84;52.61;18375.19;5095769;28;20312;-71
2024/01/17 09:48:30;;;;;;;10.13;7.17;;;1.40;99.90;;;-141.84;52.72;18377.22;5094871;28;20246;-72
2024/01/17 09:51:00;;;;;;;8.63;6.97;;;1.50;99.90;;;-141.84;52.51;18432.09;5094165;28;20658;-69
2024/01/17 09:53:30;;;;;;;11.37;7.30;;;1.50;99.90;;;-141.84;52.31;18403.63;5093987;28;20645;-67
2024/01/17 09:56:01;;;;;;;8.03;6.37;;;1.60;99.90;;;-141.84;52.73;18383.31;5096620;28;20208;-68
2024/01/17 09:58:33;;;;;;;9.30;6.53;;;1.50;99.90;;;-141.84;53.34;18389.41;5095353;28;20224;-69
2024/01/17 10:01:04;;;;;;;10.60;6.87;;;1.50;99.90;;;-141.84;54.05;18367.06;5095885;28;20309;-69
2024/01/17 10:03:41;;;;;;;10.63;7.37;;;1.40;99.90;;;-141.84;53.39;18407.69;5094337;28;20235;-68
2024/01/17 10:06:15;;;;;;;12.17;7.10;;;1.50;99.90;;;-141.84;54.17;18387.38;5094892;28;20230;-70
2024/01/17 10:08:46;;;;;;;10.97;7.20;;;1.40;99.90;;;-141.84;54.09;18393.47;5090688;28;20759;-72
2024/01/17 10:11:15;;;;;;;12.80;7.43;;;1.40;99.90;;;-141.84;54.71;18375.19;5093939;28;20685;-64